Time;durP1;ratioP1;P1;durP2;ratioP2;P2;SDS_P1;SDS_P2;PMS_P1;PMS_P2;Temp;Humidity;BMP_temperature;BMP_pressure;BME280_temperature;BME280_humidity;BME280_pressure;Samples;Min_cycle;Max_cycle;Signal;HPM_P1;HPM_P2
2022/01/13 00:00:50;;;;;;;16.17;14.97;;;;;;;23.20;22.72;96343.59;7289063;19;137291;-69
2022/01/13 00:03:16;;;;;;;17.03;15.63;;;;;;;23.19;23.32;96342.00;7297099;19;137278;-69
2022/01/13 00:05:41;;;;;;;16.50;15.27;;;;;;;23.19;22.71;96345.47;7299880;19;137466;-69
2022/01/13 00:08:07;;;;;;;16.90;15.50;;;;;;;23.19;22.95;96347.34;7300314;19;137390;-69
2022/01/13 00:10:32;;;;;;;18.13;16.63;;;;;;;23.18;23.24;96356.38;7297232;19;136916;-69
2022/01/13 00:13:05;;;;;;;18.33;16.83;;;;;;;23.18;22.52;96348.38;7290177;19;139275;-69
2022/01/13 00:15:41;;;;;;;18.67;17.07;;;;;;;23.19;22.78;96356.13;7300055;19;137163;-69
2022/01/13 00:18:19;;;;;;;18.80;17.20;;;;;;;23.19;22.89;96358.00;7300277;19;137320;-68
2022/01/13 00:26:13;;;;;;;18.73;17.23;;;;;;;23.18;23.19;96365.22;7300620;19;136989;-70
2022/01/13 00:28:39;;;;;;;20.10;18.40;;;;;;;23.19;22.62;96371.34;7300668;19;136919;-69
2022/01/13 00:31:06;;;;;;;20.07;18.47;;;;;;;23.17;22.64;96374.25;7301796;19;136957;-69
2022/01/13 00:33:32;;;;;;;20.10;18.50;;;;;;;23.17;23.19;96374.25;7298763;19;137412;-69
2022/01/13 00:36:00;;;;;;;20.13;18.53;;;;;;;23.17;22.94;96374.25;7294312;19;139855;-69
2022/01/13 00:38:32;;;;;;;19.47;17.87;;;;;;;23.17;23.13;96381.47;7302483;19;137203;-69
2022/01/13 00:40:58;;;;;;;19.20;17.60;;;;;;;23.16;23.31;96380.66;7301254;19;136990;-69
2022/01/13 00:43:24;;;;;;;21.00;19.30;;;;;;;23.17;23.15;96373.47;7296389;19;139102;-69
2022/01/13 00:45:49;;;;;;;19.60;18.00;;;;;;;23.16;23.14;96386.00;7289334;19;137881;-69
2022/01/13 00:48:15;;;;;;;20.20;18.50;;;;;;;23.16;23.32;96387.84;7302772;19;137427;-69
2022/01/13 00:50:41;;;;;;;19.13;17.63;;;;;;;23.17;22.74;96394.78;7301134;19;136852;-69
2022/01/13 00:53:07;;;;;;;20.03;18.43;;;;;;;23.16;23.38;96393.19;7301695;19;137539;-67
2022/01/13 00:55:46;;;;;;;20.57;18.87;;;;;;;23.17;23.07;96394.78;7299291;19;139163;-70
2022/01/13 00:58:12;;;;;;;19.73;18.13;;;;;;;23.14;23.20;96390.81;7298853;19;137172;-68
2022/01/13 01:00:38;;;;;;;19.37;17.77;;;;;;;23.15;23.01;96391.59;7300821;19;136958;-68
2022/01/13 01:03:04;;;;;;;19.90;18.30;;;;;;;23.14;22.92;96393.47;7299397;19;137194;-67
2022/01/13 01:05:32;;;;;;;20.60;18.90;;;;;;;23.15;23.22;96396.94;7300151;19;137707;-68
2022/01/13 01:07:57;;;;;;;19.57;17.77;;;;;;;23.14;23.44;96395.34;7288796;19;136900;-68
2022/01/13 01:10:23;;;;;;;19.90;18.20;;;;;;;23.15;23.37;96407.59;7297600;19;137490;-67
2022/01/13 01:12:49;;;;;;;19.40;17.80;;;;;;;23.14;23.52;96406.00;7298022;19;137503;-68
2022/01/13 01:15:15;;;;;;;19.00;17.50;;;;;;;23.13;23.51;96404.41;7294994;19;139115;-69
2022/01/13 01:17:46;;;;;;;19.90;18.23;;;;;;;23.13;22.92;96409.75;7288657;19;137291;-70
2022/01/13 01:20:13;;;;;;;19.50;17.90;;;;;;;23.14;23.43;96408.66;7294076;19;137187;-69
2022/01/13 01:25:33;;;;;;;18.90;17.33;;;;;;;23.13;23.25;96415.88;7294970;19;137501;-69
2022/01/13 01:28:00;;;;;;;19.00;17.40;;;;;;;23.12;23.39;96400.94;7293782;19;137421;-70
2022/01/13 01:30:38;;;;;;;17.80;16.40;;;;;;;23.09;23.36;96402.28;7286115;19;138325;-69
2022/01/13 01:33:06;;;;;;;17.63;16.17;;;;;;;23.12;22.85;96406.28;7297289;19;137428;-69
2022/01/13 01:35:32;;;;;;;18.23;16.80;;;;;;;23.11;22.68;96405.47;7295329;19;137332;-69
2022/01/13 01:37:57;;;;;;;18.10;16.60;;;;;;;23.11;23.08;96407.34;7294236;19;139571;-67
2022/01/13 01:40:23;;;;;;;17.93;16.53;;;;;;;23.10;23.26;96403.88;7284104;19;136825;-69
2022/01/13 01:42:50;;;;;;;17.70;16.20;;;;;;;23.11;23.29;96407.34;7292212;19;139512;-69
2022/01/13 01:45:18;;;;;;;18.27;16.77;;;;;;;23.11;23.21;96410.00;7295283;19;137282;-69
2022/01/13 01:47:44;;;;;;;18.47;16.87;;;;;;;23.13;23.18;96409.75;7296641;19;137392;-68
2022/01/13 01:50:18;;;;;;;17.80;16.30;;;;;;;23.10;22.96;96403.88;7292859;19;136775;-69
2022/01/13 01:52:49;;;;;;;17.30;15.90;;;;;;;23.09;23.19;96404.97;7284410;19;136909;-69
2022/01/13 01:55:16;;;;;;;17.63;16.13;;;;;;;23.12;23.13;96398.28;7299721;19;137308;-68
2022/01/13 01:57:43;;;;;;;17.93;16.40;;;;;;;23.09;22.89;96398.81;7301009;19;136696;-69
2022/01/13 02:00:12;;;;;;;16.90;15.47;;;;;;;23.11;22.99;96399.34;7300027;19;136927;-68
2022/01/13 02:02:39;;;;;;;16.43;15.13;;;;;;;23.10;23.42;96398.56;7288885;19;136954;-68
2022/01/13 02:05:05;;;;;;;17.10;15.60;;;;;;;23.11;23.08;96402.81;7301882;19;137230;-68
2022/01/13 02:07:30;;;;;;;17.87;16.37;;;;;;;23.11;23.29;96389.47;7302523;19;137386;-69
2022/01/13 02:09:56;;;;;;;15.57;14.17;;;;;;;23.10;23.31;96390.56;7300498;19;137057;-67
2022/01/13 02:12:43;;;;;;;16.50;15.17;;;;;;;23.11;23.12;96392.16;7300055;19;139150;-69
2022/01/13 02:17:38;;;;;;;15.93;14.63;;;;;;;23.11;22.96;96386.81;7302774;19;137647;-69
2022/01/13 02:20:08;;;;;;;16.17;14.90;;;;;;;23.11;23.22;96386.03;7300985;19;137115;-69
2022/01/13 02:22:34;;;;;;;18.13;16.63;;;;;;;23.10;22.80;96382.56;7300445;19;137243;-69
2022/01/13 02:24:59;;;;;;;17.00;15.60;;;;;;;23.09;22.66;96383.63;7287485;19;137644;-70
2022/01/13 02:27:25;;;;;;;17.37;15.87;;;;;;;23.10;22.99;96387.09;7299539;19;137050;-69
2022/01/13 02:29:51;;;;;;;15.73;14.43;;;;;;;23.10;22.76;96393.22;7302283;19;136694;-70
2022/01/13 02:32:18;;;;;;;16.60;15.30;;;;;;;23.10;23.16;96393.22;7298788;19;137306;-69
2022/01/13 02:34:44;;;;;;;15.93;14.40;;;;;;;23.08;22.90;96394.56;7298097;19;136933;-69
2022/01/13 02:37:10;;;;;;;16.20;14.90;;;;;;;23.09;22.98;96396.16;7292793;19;136819;-67
2022/01/13 02:39:36;;;;;;;15.40;14.17;;;;;;;23.08;23.25;96400.69;7300604;19;136741;-68
2022/01/13 02:42:11;;;;;;;15.10;13.80;;;;;;;23.08;22.88;96395.38;7300469;19;137623;-68
2022/01/13 02:45:31;;;;;;;15.93;14.63;;;;;;;23.08;22.90;96397.22;7302054;19;137210;-67
2022/01/13 02:49:59;;;;;;;15.17;13.90;;;;;;;23.09;22.76;96406.81;7299674;19;136685;-68
2022/01/13 02:52:25;;;;;;;15.53;14.23;;;;;;;23.07;22.92;96404.44;7299947;19;137240;-69
2022/01/13 02:54:50;;;;;;;15.13;13.93;;;;;;;23.07;22.71;96401.75;7300322;19;137187;-70
2022/01/13 02:57:16;;;;;;;14.80;13.60;;;;;;;23.09;23.07;96398.81;7288558;19;138464;-68
2022/01/13 02:59:42;;;;;;;15.47;14.10;;;;;;;23.07;22.75;96395.63;7300039;19;137078;-70
2022/01/13 03:02:07;;;;;;;15.30;14.00;;;;;;;23.06;23.17;96384.19;7297168;19;139016;-69
2022/01/13 03:04:33;;;;;;;16.27;14.87;;;;;;;23.06;22.67;96389.50;7298318;19;140404;-67
2022/01/13 03:06:58;;;;;;;15.47;14.17;;;;;;;23.07;22.77;96393.78;7298890;19;136761;-69
2022/01/13 03:09:24;;;;;;;15.20;13.93;;;;;;;23.06;22.58;96384.19;7289026;19;137929;-68
2022/01/13 03:11:50;;;;;;;15.03;13.83;;;;;;;23.07;23.04;96376.97;7300180;19;137363;-67
2022/01/13 03:14:16;;;;;;;15.70;14.33;;;;;;;23.07;22.63;96383.09;7298725;19;137334;-68
2022/01/13 03:16:43;;;;;;;14.93;13.73;;;;;;;23.07;22.67;96375.09;7299536;19;138184;-68
2022/01/13 03:19:09;;;;;;;15.70;14.40;;;;;;;23.07;22.55;96376.97;7286547;19;137042;-68
2022/01/13 03:21:35;;;;;;;15.80;14.50;;;;;;;23.08;22.67;96378.56;7298792;19;137017;-68
2022/01/13 03:24:05;;;;;;;15.97;14.67;;;;;;;23.09;22.35;96378.28;7296693;19;137427;-68
2022/01/13 03:26:31;;;;;;;13.93;12.83;;;;;;;23.09;22.69;96388.97;7296967;19;139398;-67
2022/01/13 03:31:38;;;;;;;14.90;13.60;;;;;;;23.11;22.65;96389.47;7287740;19;138889;-70
2022/01/13 03:34:04;;;;;;;15.20;13.80;;;;;;;23.14;22.83;96395.34;7298598;19;137148;-66
2022/01/13 03:36:29;;;;;;;14.43;13.13;;;;;;;23.14;22.29;96390.00;7297153;19;138531;-68
2022/01/13 03:38:55;;;;;;;14.23;13.13;;;;;;;23.16;22.61;96404.66;7298661;19;136839;-67
2022/01/13 03:41:22;;;;;;;14.80;13.60;;;;;;;23.17;22.34;96395.59;7286225;19;136865;-67
2022/01/13 03:43:51;;;;;;;14.83;13.63;;;;;;;23.17;22.22;96402.78;7297704;19;137670;-68
2022/01/13 03:46:17;;;;;;;15.33;14.03;;;;;;;23.18;22.34;96401.72;7296034;19;138433;-69
2022/01/13 03:48:43;;;;;;;14.57;13.37;;;;;;;23.18;22.22;96401.72;7297924;19;137381;-67
2022/01/13 03:51:09;;;;;;;14.17;12.87;;;;;;;23.20;22.17;96396.94;7298260;19;137358;-67
2022/01/13 03:54:09;;;;;;;14.03;12.93;;;;;;;23.20;22.55;96396.94;7286797;19;137093;-67
2022/01/13 03:57:03;;;;;;;13.67;12.50;;;;;;;23.23;22.68;96393.72;7300882;19;136834;-71
2022/01/13 04:00:14;;;;;;;13.93;12.70;;;;;;;23.28;22.59;96393.69;7298788;19;137143;-68
2022/01/13 04:02:40;;;;;;;14.60;13.40;;;;;;;23.30;22.90;96404.88;7292376;19;137187;-67
2022/01/13 04:05:06;;;;;;;13.50;12.40;;;;;;;23.34;22.81;96405.91;7290490;19;137418;-71
2022/01/13 04:07:31;;;;;;;13.40;12.30;;;;;;;23.35;22.88;96402.19;7301413;19;137040;-71
2022/01/13 04:10:52;;;;;;;13.70;12.60;;;;;;;23.36;22.54;96411.78;7300714;19;137494;-71
2022/01/13 04:14:05;;;;;;;14.40;13.20;;;;;;;23.40;22.80;96415.50;7301372;19;138814;-71
2022/01/13 04:16:04;;;;;;;13.63;12.47;;;;;;;23.42;22.75;96418.69;7290367;19;137023;-73
2022/01/13 04:18:29;;;;;;;13.43;12.20;;;;;;;23.44;22.88;96426.41;7299372;19;136863;-70
2022/01/13 04:20:55;;;;;;;12.70;11.50;;;;;;;23.47;22.84;96437.34;7302078;19;136865;-73
2022/01/13 04:23:20;;;;;;;13.30;12.20;;;;;;;23.48;23.07;96438.94;7300715;19;137472;-69
2022/01/13 04:25:46;;;;;;;13.27;12.17;;;;;;;23.49;22.75;96459.19;7285399;19;137763;-69
2022/01/13 04:28:13;;;;;;;12.30;11.30;;;;;;;23.45;22.93;96454.69;7296601;19;136915;-71
2022/01/13 04:33:07;;;;;;;14.83;13.53;;;;;;;23.15;23.14;96455.59;7299344;19;137558;-70
2022/01/13 04:35:33;;;;;;;15.47;14.07;;;;;;;22.42;21.21;96456.72;7302027;19;137390;-73
2022/01/13 04:37:59;;;;;;;14.43;13.30;;;;;;;22.02;21.10;96452.16;7292411;19;139157;-74
2022/01/13 04:40:25;;;;;;;15.47;14.20;;;;;;;21.66;20.88;96450.44;7304130;19;138135;-69
2022/01/13 04:42:54;;;;;;;15.30;14.00;;;;;;;21.42;20.18;96464.19;7301895;19;137805;-71
2022/01/13 04:45:21;;;;;;;15.40;14.17;;;;;;;21.34;20.93;96451.41;7301303;19;136987;-69
2022/01/13 04:47:48;;;;;;;16.20;14.30;;;;;;;21.47;21.40;96447.47;7282057;19;137558;-66
2022/01/13 04:50:14;;;;;;;15.53;14.13;;;;;;;21.57;21.15;96443.00;7291197;19;137505;-67
2022/01/13 04:52:39;;;;;;;14.80;13.50;;;;;;;21.60;20.82;96439.81;7296321;19;137181;-67
2022/01/13 04:55:10;;;;;;;16.07;14.57;;;;;;;21.63;20.72;96444.59;7296675;19;137990;-68
2022/01/13 04:57:36;;;;;;;14.57;13.37;;;;;;;21.70;20.28;96436.38;7297984;19;136955;-69
2022/01/13 05:00:04;;;;;;;14.67;13.37;;;;;;;22.19;20.44;96443.94;7131121;19;139149;-67
2022/01/13 05:02:30;;;;;;;13.17;12.00;;;;;;;22.51;21.09;96433.84;7295685;19;136990;-67
2022/01/13 05:04:55;;;;;;;13.73;12.57;;;;;;;22.63;21.42;96446.06;7296857;19;137267;-67
2022/01/13 05:07:21;;;;;;;12.83;11.63;;;;;;;22.72;22.08;96441.81;7294765;19;138686;-68
2022/01/13 05:09:46;;;;;;;12.67;11.57;;;;;;;22.81;22.25;96440.16;7286040;19;137235;-72
2022/01/13 05:12:12;;;;;;;12.37;11.37;;;;;;;22.75;21.53;96442.06;7297731;19;139886;-69
2022/01/13 05:14:37;;;;;;;13.40;12.30;;;;;;;22.84;21.48;96450.31;7298130;19;138107;-71
2022/01/13 05:17:34;;;;;;;12.60;11.60;;;;;;;22.91;21.99;96450.84;7296762;19;137102;-71
2022/01/13 05:20:13;;;;;;;12.00;11.00;;;;;;;22.94;22.21;96450.31;7287310;19;137163;-69
2022/01/13 05:22:39;;;;;;;12.40;11.20;;;;;;;22.97;21.84;96456.97;7296107;19;139770;-70
2022/01/13 05:25:05;;;;;;;11.83;10.83;;;;;;;22.91;22.05;96453.53;7298278;19;137264;-72
2022/01/13 05:27:30;;;;;;;11.47;10.47;;;;;;;22.82;22.73;96463.13;7298963;19;136962;-70
2022/01/13 05:29:56;;;;;;;11.00;10.10;;;;;;;22.77;22.16;96466.56;7297188;19;137101;-70
2022/01/13 05:32:21;;;;;;;12.10;11.10;;;;;;;22.74;22.90;96469.78;7286639;19;136974;-71
2022/01/13 05:34:47;;;;;;;12.90;11.83;;;;;;;22.73;22.63;96470.84;7299131;19;139699;-71
2022/01/13 05:37:12;;;;;;;11.80;10.80;;;;;;;22.71;22.83;96462.31;7299753;19;139197;-69
2022/01/13 05:39:38;;;;;;;12.40;11.40;;;;;;;22.72;22.74;96476.44;7300619;19;137167;-70
2022/01/13 05:42:03;;;;;;;11.47;10.57;;;;;;;22.72;22.48;96473.78;7289642;19;137316;-70
2022/01/13 05:44:36;;;;;;;11.77;10.87;;;;;;;22.71;22.63;96477.50;7298565;19;137389;-72
2022/01/13 05:47:02;;;;;;;12.13;11.10;;;;;;;22.75;22.59;96478.56;7295771;19;138955;-67
2022/01/13 05:49:27;;;;;;;10.93;10.03;;;;;;;22.72;22.71;96484.44;7297827;19;136934;-69
2022/01/13 05:51:53;;;;;;;11.93;10.20;;;;;;;22.78;22.32;96486.00;7293926;19;139067;-68
2022/01/13 05:54:18;;;;;;;10.87;9.87;;;;;;;22.83;22.95;96486.03;7283637;19;137807;-67
2022/01/13 05:56:44;;;;;;;11.50;10.50;;;;;;;22.88;22.34;96487.91;7296131;19;137312;-66
2022/01/13 05:59:09;;;;;;;11.27;10.33;;;;;;;22.89;22.96;96484.19;7296172;19;137444;-67
2022/01/13 06:01:35;;;;;;;11.67;10.67;;;;;;;22.90;22.89;96486.56;7294782;19;137497;-67
2022/01/13 06:04:00;;;;;;;11.20;10.20;;;;;;;22.93;22.30;96490.56;7280931;19;138409;-67
2022/01/13 06:06:26;;;;;;;10.83;10.03;;;;;;;22.94;23.11;96503.63;7295038;19;136989;-67
2022/01/13 06:08:51;;;;;;;11.17;10.27;;;;;;;22.94;23.01;96502.81;7297123;19;136928;-67
2022/01/13 06:11:21;;;;;;;10.50;9.57;;;;;;;22.95;23.11;96502.53;7297112;19;137379;-68
2022/01/13 06:13:47;;;;;;;10.87;10.00;;;;;;;22.96;22.48;96503.34;7297041;19;137258;-67
2022/01/13 06:16:13;;;;;;;10.90;10.00;;;;;;;22.96;23.14;96501.47;7283814;19;137573;-68
2022/01/13 06:18:38;;;;;;;11.60;10.60;;;;;;;22.96;23.20;96501.47;7298242;19;137025;-69
2022/01/13 06:21:04;;;;;;;11.53;10.63;;;;;;;22.96;23.30;96509.47;7296394;19;137379;-69
2022/01/13 06:23:29;;;;;;;11.67;10.67;;;;;;;22.97;22.75;96510.28;7292321;19;137377;-69
2022/01/13 06:25:57;;;;;;;9.87;9.03;;;;;;;22.96;22.94;96512.13;7278768;19;138973;-70
2022/01/13 06:28:23;;;;;;;11.43;10.50;;;;;;;22.96;23.27;96514.81;7291670;19;136845;-68
2022/01/13 06:30:48;;;;;;;10.80;9.90;;;;;;;22.97;22.81;96516.41;7293832;19;137379;-69
2022/01/13 06:33:14;;;;;;;10.63;9.73;;;;;;;22.98;23.21;96522.53;7291942;19;137848;-67
2022/01/13 06:35:40;;;;;;;11.50;10.40;;;;;;;22.98;23.17;96531.31;7293584;19;136986;-67
2022/01/13 06:38:06;;;;;;;10.17;9.37;;;;;;;22.98;22.54;96534.00;7279428;19;138182;-68
2022/01/13 06:40:32;;;;;;;11.00;10.10;;;;;;;22.98;23.13;96527.84;7292752;19;139181;-67
2022/01/13 06:42:57;;;;;;;11.63;10.70;;;;;;;22.95;23.07;96531.88;7297954;19;140048;-68
2022/01/13 06:45:23;;;;;;;9.90;9.10;;;;;;;22.95;23.00;96534.53;7298529;19;139944;-69
2022/01/13 06:47:48;;;;;;;11.23;10.33;;;;;;;22.93;22.48;96539.34;7293419;19;137037;-70
2022/01/13 06:50:16;;;;;;;10.90;10.10;;;;;;;22.93;22.66;96542.00;7295876;19;137441;-70
2022/01/13 06:52:42;;;;;;;10.67;9.80;;;;;;;22.93;22.86;96542.00;7298977;19;139540;-69
2022/01/13 06:55:08;;;;;;;10.97;10.17;;;;;;;22.93;22.62;96555.31;7300724;19;136916;-68
2022/01/13 06:57:34;;;;;;;10.37;9.57;;;;;;;22.92;23.27;96544.94;7300313;19;136906;-67
2022/01/13 07:00:00;;;;;;;10.43;9.53;;;;;;;22.91;23.06;96551.34;7285099;19;137540;-70
2022/01/13 07:02:28;;;;;;;11.00;10.10;;;;;;;22.91;22.40;96565.47;7300752;19;137390;-69
2022/01/13 07:04:54;;;;;;;10.50;9.60;;;;;;;22.91;22.76;96559.31;7300692;19;137092;-70
2022/01/13 07:07:20;;;;;;;9.77;8.97;;;;;;;22.91;22.89;96567.31;7299812;19;136911;-69
2022/01/13 07:09:45;;;;;;;9.87;9.17;;;;;;;22.90;22.80;96560.41;7298817;19;137451;-68
2022/01/13 07:12:11;;;;;;;10.00;9.00;;;;;;;22.90;22.32;96566.53;7288332;19;137239;-68
2022/01/13 07:14:36;;;;;;;9.87;8.97;;;;;;;22.90;23.15;96574.53;7298744;19;137542;-70
2022/01/13 07:17:03;;;;;;;9.53;8.83;;;;;;;22.91;23.06;96589.44;7300556;19;137364;-69
2022/01/13 07:19:29;;;;;;;9.63;8.90;;;;;;;22.90;22.44;96581.72;7300162;19;137657;-69
2022/01/13 07:21:54;;;;;;;10.10;9.30;;;;;;;22.91;22.79;96578.78;7286808;19;137433;-70
2022/01/13 07:24:20;;;;;;;10.47;9.67;;;;;;;22.91;22.83;96578.78;7297861;19;137327;-69
2022/01/13 07:26:45;;;;;;;10.20;9.40;;;;;;;22.90;23.08;96587.84;7299491;19;137380;-68
2022/01/13 07:29:11;;;;;;;10.00;9.00;;;;;;;22.90;22.49;96581.72;7300302;19;137377;-69
2022/01/13 07:31:38;;;;;;;9.80;9.00;;;;;;;22.89;22.72;96586.25;7300791;19;137031;-74
2022/01/13 07:34:04;;;;;;;10.60;9.70;;;;;;;22.96;23.10;96592.09;7290817;19;136763;-70
2022/01/13 07:36:30;;;;;;;10.30;9.40;;;;;;;23.06;22.70;96584.13;7300343;19;136949;-70
2022/01/13 07:38:56;;;;;;;9.40;8.60;;;;;;;23.16;21.96;96590.50;7297785;19;139971;-68
2022/01/13 07:41:21;;;;;;;9.80;9.00;;;;;;;23.20;22.01;96587.03;7300301;19;136934;-70
2022/01/13 07:43:53;;;;;;;9.40;8.60;;;;;;;23.26;21.73;96599.28;7287869;19;136930;-69
2022/01/13 07:46:18;;;;;;;9.77;8.97;;;;;;;23.29;21.81;96598.75;7299066;19;136999;-69
2022/01/13 07:48:44;;;;;;;9.50;8.70;;;;;;;23.36;21.57;96606.50;7299784;19;136877;-69
2022/01/13 07:51:09;;;;;;;9.60;8.80;;;;;;;23.36;21.88;96606.50;7299901;19;137402;-70
2022/01/13 07:53:35;;;;;;;9.90;9.10;;;;;;;23.36;21.51;96611.81;7297293;19;138860;-68
2022/01/13 07:56:01;;;;;;;10.10;9.30;;;;;;;23.37;21.54;96618.75;7288198;19;137069;-69
2022/01/13 07:58:26;;;;;;;10.47;9.57;;;;;;;23.38;21.86;96631.03;7299443;19;137039;-70
2022/01/13 08:00:52;;;;;;;8.93;8.23;;;;;;;23.37;21.67;96638.22;7297598;19;139278;-68
2022/01/13 08:03:18;;;;;;;9.47;8.63;;;;;;;23.38;21.42;96631.03;7299563;19;137587;-69
2022/01/13 08:05:43;;;;;;;9.60;8.70;;;;;;;23.39;22.20;96638.75;7287843;19;136946;-69
2022/01/13 08:08:09;;;;;;;8.83;8.13;;;;;;;23.38;21.97;96637.16;7297895;19;137095;-70
2022/01/13 08:10:35;;;;;;;9.77;8.97;;;;;;;23.39;22.01;96638.75;7298843;19;137604;-69
2022/01/13 08:13:01;;;;;;;9.00;8.30;;;;;;;23.40;21.47;96642.22;7299351;19;137481;-69
2022/01/13 08:15:27;;;;;;;9.07;8.30;;;;;;;23.40;21.72;96650.22;7299702;19;136866;-69
2022/01/13 08:20:37;;;;;;;9.13;8.43;;;;;;;23.38;22.01;96653.16;7298865;19;138023;-69
2022/01/13 08:23:03;;;;;;;8.90;8.20;;;;;;;23.38;21.55;96649.69;7297969;19;136969;-69
2022/01/13 08:25:30;;;;;;;8.87;8.17;;;;;;;23.39;21.67;96659.28;7294937;19;137550;-68
2022/01/13 08:27:55;;;;;;;8.50;7.90;;;;;;;23.39;21.84;96661.97;7285801;19;137796;-68
2022/01/13 08:30:22;;;;;;;9.27;8.57;;;;;;;23.22;21.93;96662.22;7297333;19;137407;-69
2022/01/13 08:32:47;;;;;;;8.97;8.27;;;;;;;23.15;22.57;96663.53;7299739;19;137280;-68
2022/01/13 08:35:14;;;;;;;9.90;9.10;;;;;;;23.09;22.73;96679.53;7298756;19;137301;-68
2022/01/13 08:37:40;;;;;;;9.60;8.70;;;;;;;23.07;22.42;96679.03;7295905;19;137561;-68
2022/01/13 08:40:09;;;;;;;9.70;8.83;;;;;;;23.05;22.50;96680.34;7284689;19;139151;-69
2022/01/13 08:42:35;;;;;;;9.40;8.60;;;;;;;23.04;22.58;96668.09;7298593;19;137155;-69
2022/01/13 08:45:03;;;;;;;9.60;8.80;;;;;;;23.04;22.26;96668.88;7295554;19;137635;-68
2022/01/13 08:47:28;;;;;;;10.77;9.87;;;;;;;23.03;22.90;96674.50;7297955;19;137091;-68
2022/01/13 08:49:54;;;;;;;10.10;9.30;;;;;;;23.02;22.82;96676.34;7285300;19;136937;-69
2022/01/13 08:52:20;;;;;;;9.20;8.50;;;;;;;23.02;22.72;96675.56;7297763;19;136739;-69
2022/01/13 08:54:46;;;;;;;10.33;9.43;;;;;;;23.00;22.97;96662.47;7296025;19;136907;-67
2022/01/13 08:57:13;;;;;;;10.07;9.20;;;;;;;22.99;22.36;96671.53;7297794;19;137009;-69
2022/01/13 08:59:39;;;;;;;10.60;9.70;;;;;;;22.95;22.25;96667.81;7296482;19;136946;-68
2022/01/13 09:02:04;;;;;;;10.40;9.50;;;;;;;22.94;21.91;96668.88;7283240;19;138457;-69
2022/01/13 09:04:30;;;;;;;11.10;10.20;;;;;;;23.11;21.90;96650.75;7293985;19;136597;-68
2022/01/13 09:06:55;;;;;;;9.10;8.30;;;;;;;23.29;21.53;96653.97;7297358;19;137802;-69
2022/01/13 09:09:21;;;;;;;9.27;8.57;;;;;;;23.39;21.34;96648.63;7297528;19;136954;-69
2022/01/13 09:11:47;;;;;;;10.13;9.33;;;;;;;23.48;21.76;96647.00;7286506;19;138269;-68
2022/01/13 09:14:15;;;;;;;9.37;8.57;;;;;;;23.54;21.62;96653.94;7295446;19;138016;-68
2022/01/13 09:16:42;;;;;;;9.80;8.80;;;;;;;23.59;21.72;96666.50;7297412;19;137738;-69
2022/01/13 09:19:10;;;;;;;9.67;8.87;;;;;;;23.61;21.40;96657.16;7296101;19;138503;-69
2022/01/13 09:21:37;;;;;;;9.77;8.97;;;;;;;23.65;21.00;96660.88;7296911;19;137536;-70
2022/01/13 09:24:05;;;;;;;9.80;9.03;;;;;;;23.66;20.94;96657.16;7285671;19;136776;-70
2022/01/13 09:26:31;;;;;;;9.03;8.27;;;;;;;23.67;21.04;96653.41;7297112;19;138077;-68
2022/01/13 09:28:56;;;;;;;9.63;8.93;;;;;;;23.64;21.03;96645.94;7296846;19;138267;-69
2022/01/13 09:31:22;;;;;;;8.83;8.13;;;;;;;23.64;21.00;96640.59;7300414;19;137525;-69
2022/01/13 09:33:48;;;;;;;9.23;8.53;;;;;;;23.64;21.25;96623.78;7288278;19;137094;-68
2022/01/13 09:36:15;;;;;;;9.07;8.37;;;;;;;23.62;21.18;96621.41;7297210;19;137454;-70
2022/01/13 09:38:41;;;;;;;9.03;8.33;;;;;;;23.62;21.50;96628.59;7294369;19;139748;-69
2022/01/13 09:41:06;;;;;;;9.63;8.87;;;;;;;23.63;20.89;96623.00;7296615;19;136997;-69
2022/01/13 09:43:32;;;;;;;9.50;8.70;;;;;;;23.62;20.88;96621.41;7295751;19;137027;-69
2022/01/13 09:45:58;;;;;;;8.63;8.00;;;;;;;23.63;21.08;96631.00;7285969;19;137513;-69
2022/01/13 09:48:26;;;;;;;8.90;8.13;;;;;;;23.65;21.15;96612.84;7296075;19;136971;-69
2022/01/13 09:50:52;;;;;;;9.00;8.20;;;;;;;23.69;21.41;96615.81;7296381;19;137546;-71
2022/01/13 09:53:18;;;;;;;9.00;8.20;;;;;;;23.69;20.95;96618.47;7295515;19;137309;-68
2022/01/13 09:55:45;;;;;;;9.23;8.50;;;;;;;23.71;21.02;96611.00;7284832;19;137305;-68
2022/01/13 09:58:11;;;;;;;8.73;8.03;;;;;;;23.70;21.44;96606.72;7295529;19;137132;-69
2022/01/13 10:00:39;;;;;;;9.30;8.60;;;;;;;23.76;20.98;96594.97;7296606;19;137404;-70
2022/01/13 10:03:17;;;;;;;8.70;8.00;;;;;;;23.78;21.47;96582.13;7295159;19;136850;-68
2022/01/13 10:06:10;;;;;;;9.03;8.33;;;;;;;23.79;21.12;96577.59;7295130;19;137321;-67
2022/01/13 10:08:43;;;;;;;9.83;9.03;;;;;;;23.76;20.86;96584.28;7293994;19;137873;-67
2022/01/13 10:11:37;;;;;;;8.83;8.13;;;;;;;23.79;21.02;96570.38;7295791;19;136623;-69
2022/01/13 10:16:58;;;;;;;9.27;8.57;;;;;;;23.82;20.65;96558.34;7296630;19;136793;-70
2022/01/13 10:19:35;;;;;;;9.20;8.40;;;;;;;23.84;20.93;96559.69;7290374;19;137880;-69
2022/01/13 10:22:07;;;;;;;10.23;9.33;;;;;;;23.85;20.90;96560.47;7302543;19;137126;-69
2022/01/13 10:24:35;;;;;;;9.20;8.50;;;;;;;23.86;20.78;96559.44;7301691;19;138440;-68
2022/01/13 10:27:07;;;;;;;9.07;8.37;;;;;;;23.85;20.73;96537.28;7300969;19;137039;-69
2022/01/13 10:29:44;;;;;;;8.13;7.43;;;;;;;23.87;21.31;96537.81;7289542;19;137409;-70
2022/01/13 10:32:12;;;;;;;9.43;8.73;;;;;;;23.90;21.09;96534.59;7302101;19;136902;-70
2022/01/13 10:34:41;;;;;;;8.93;8.17;;;;;;;23.90;21.32;96531.91;7302003;19;136698;-69
2022/01/13 10:37:11;;;;;;;8.80;8.10;;;;;;;23.88;21.01;96530.59;7302636;19;136861;-69
2022/01/13 10:39:57;;;;;;;9.20;8.40;;;;;;;23.91;20.88;96524.69;7290849;19;137421;-69
2022/01/13 10:45:21;;;;;;;9.10;8.30;;;;;;;23.90;21.36;96520.44;7300557;19;136794;-69
2022/01/13 10:47:55;;;;;;;9.00;8.30;;;;;;;23.89;20.92;96514.31;7302768;19;136848;-71
2022/01/13 10:50:25;;;;;;;9.50;8.70;;;;;;;23.91;21.42;96500.69;7289844;19;137033;-69
2022/01/13 10:52:51;;;;;;;9.43;8.63;;;;;;;23.89;21.12;96506.28;7300880;19;137178;-70
2022/01/13 10:55:24;;;;;;;10.17;9.30;;;;;;;23.89;20.79;96516.16;7300077;19;136900;-67
2022/01/13 10:57:51;;;;;;;9.00;8.20;;;;;;;23.84;20.87;96506.28;7301391;19;137805;-69
2022/01/13 11:00:16;;;;;;;9.57;8.67;;;;;;;23.83;21.22;96498.56;7301323;19;137352;-68
2022/01/13 11:02:46;;;;;;;9.40;8.60;;;;;;;23.82;21.11;96502.31;7291129;19;137583;-68
2022/01/13 11:05:12;;;;;;;9.27;8.50;;;;;;;23.83;21.37;96506.56;7298039;19;137699;-68
2022/01/13 11:07:40;;;;;;;9.40;8.63;;;;;;;23.84;21.27;96516.19;7301645;19;137676;-70
2022/01/13 11:10:06;;;;;;;9.50;8.70;;;;;;;23.75;21.54;96518.63;7302654;19;137528;-67
2022/01/13 11:12:36;;;;;;;11.40;10.47;;;;;;;23.57;22.29;96511.22;7289950;19;136905;-69
2022/01/13 11:15:14;;;;;;;10.27;9.47;;;;;;;23.62;21.69;96505.88;7302571;19;137021;-69
2022/01/13 11:17:43;;;;;;;11.50;10.40;;;;;;;23.69;21.81;96503.72;7304294;19;136938;-69
2022/01/13 11:20:14;;;;;;;10.10;9.30;;;;;;;23.70;21.49;96503.44;7302272;19;137516;-70
2022/01/13 11:22:42;;;;;;;10.63;9.63;;;;;;;23.73;21.68;96498.63;7303573;19;136845;-67
2022/01/13 11:25:14;;;;;;;11.17;10.17;;;;;;;23.73;21.85;96501.31;7289562;19;137012;-68
2022/01/13 11:27:41;;;;;;;9.63;8.93;;;;;;;23.74;21.83;96492.22;7299955;19;137361;-67
2022/01/13 11:30:12;;;;;;;10.10;9.20;;;;;;;23.72;21.66;96492.50;7302686;19;137441;-67
2022/01/13 11:32:42;;;;;;;10.80;9.90;;;;;;;23.73;21.48;96498.63;7302403;19;137538;-67
2022/01/13 11:35:10;;;;;;;10.73;9.83;;;;;;;23.72;21.85;96494.38;7289147;19;140758;-66
2022/01/13 11:37:39;;;;;;;9.87;9.07;;;;;;;23.69;21.84;96487.72;7300217;19;137428;-67
2022/01/13 11:40:07;;;;;;;9.90;9.10;;;;;;;23.69;21.19;96482.38;7299103;19;137011;-68
2022/01/13 11:42:45;;;;;;;10.23;9.33;;;;;;;23.69;21.58;96488.50;7299765;19;137018;-67
2022/01/13 11:45:16;;;;;;;10.23;9.37;;;;;;;23.66;21.78;96493.56;7287131;19;137026;-67